createdAt,value
2017-08-26T00:00:05.667Z,25.86
2017-08-26T00:00:46.136Z,25.8
2017-08-26T00:01:26.591Z,25.88
2017-08-26T00:02:07.057Z,25.85
2017-08-26T00:02:47.526Z,25.8
2017-08-26T00:03:27.983Z,25.85
2017-08-26T00:04:08.437Z,25.78
2017-08-26T00:04:48.894Z,25.8
2017-08-26T00:05:29.351Z,25.85
2017-08-26T00:06:09.791Z,25.86
2017-08-26T00:06:50.249Z,25.85
2017-08-26T00:07:30.706Z,25.88
2017-08-26T00:08:11.195Z,25.83
2017-08-26T00:08:51.619Z,25.83
2017-08-26T00:10:39.070Z,25.85
2017-08-26T00:11:19.528Z,25.78
2017-08-26T00:11:59.982Z,25.86
2017-08-26T00:12:40.436Z,25.83
2017-08-26T00:13:20.895Z,25.76
2017-08-26T00:14:01.356Z,25.76
2017-08-26T00:14:41.807Z,25.73
2017-08-26T00:15:22.271Z,25.81
2017-08-26T00:16:02.722Z,25.81
2017-08-26T00:16:43.184Z,25.73
2017-08-26T00:17:23.642Z,25.77
2017-08-26T00:18:04.091Z,25.83
2017-08-26T00:18:44.550Z,25.83
2017-08-26T00:19:25.014Z,25.76
2017-08-26T00:20:05.459Z,25.81
2017-08-26T00:20:45.918Z,25.76
2017-08-26T00:21:26.379Z,25.78
2017-08-26T00:22:06.836Z,25.73
2017-08-26T00:22:47.286Z,25.85
2017-08-26T00:23:27.733Z,25.74
2017-08-26T00:24:08.187Z,25.71
2017-08-26T00:24:48.640Z,25.8
2017-08-26T00:25:29.087Z,25.78
2017-08-26T00:26:09.557Z,25.71
2017-08-26T00:26:50.012Z,25.81
2017-08-26T00:27:30.493Z,25.81
2017-08-26T00:28:10.927Z,25.78
2017-08-26T00:28:51.389Z,25.74
2017-08-26T00:29:31.843Z,25.74
2017-08-26T00:30:12.296Z,25.76
2017-08-26T00:30:52.770Z,25.74
2017-08-26T00:31:33.207Z,25.78
2017-08-26T00:32:13.652Z,25.73
2017-08-26T00:32:54.111Z,25.77
2017-08-26T00:33:34.566Z,25.74
2017-08-26T00:34:15.009Z,25.77
2017-08-26T00:34:55.462Z,25.78
2017-08-26T00:35:35.933Z,25.76
2017-08-26T00:36:16.367Z,25.77
2017-08-26T00:36:56.840Z,25.8
2017-08-26T00:37:37.289Z,25.73
2017-08-26T00:38:17.750Z,25.83
2017-08-26T00:38:58.200Z,25.76
2017-08-26T00:39:38.654Z,25.74
2017-08-26T00:40:19.114Z,25.74
2017-08-26T00:40:59.572Z,25.73
2017-08-26T00:41:40.035Z,25.8
2017-08-26T00:42:20.487Z,25.77
2017-08-26T00:43:00.945Z,25.74
2017-08-26T00:43:41.404Z,25.74
2017-08-26T00:44:21.857Z,25.74
2017-08-26T00:45:02.310Z,25.74
2017-08-26T00:45:42.779Z,25.74
2017-08-26T00:46:23.227Z,25.78
2017-08-26T00:47:03.680Z,25.81
2017-08-26T00:47:44.136Z,25.76
2017-08-26T00:48:24.594Z,25.71
2017-08-26T00:49:05.052Z,25.8
2017-08-26T00:49:45.501Z,25.7
2017-08-26T00:50:25.952Z,25.7
2017-08-26T00:51:06.411Z,25.73
2017-08-26T00:51:46.876Z,25.81
2017-08-26T00:52:27.312Z,25.7
2017-08-26T00:53:07.760Z,25.74
2017-08-26T00:53:48.223Z,25.73
2017-08-26T00:54:28.682Z,25.74
2017-08-26T00:55:09.136Z,25.78
2017-08-26T00:55:49.585Z,25.78
2017-08-26T00:56:30.042Z,25.8
2017-08-26T00:57:10.494Z,25.7
2017-08-26T00:57:50.952Z,25.77
2017-08-26T00:58:31.405Z,25.77
2017-08-26T00:59:11.860Z,25.74
2017-08-26T00:59:52.320Z,25.78
2017-08-26T01:00:32.791Z,25.74
2017-08-26T01:01:13.252Z,25.76
2017-08-26T01:01:53.705Z,25.78
2017-08-26T01:02:34.168Z,25.77
2017-08-26T01:03:14.607Z,25.83
2017-08-26T01:03:55.066Z,25.74
2017-08-26T01:04:35.511Z,25.74
2017-08-26T01:05:15.966Z,25.81
2017-08-26T01:05:56.425Z,25.76
2017-08-26T01:06:36.874Z,25.83
2017-08-26T01:07:17.330Z,25.8
2017-08-26T01:07:57.803Z,25.81
2017-08-26T01:08:38.251Z,25.85
2017-08-26T01:09:18.702Z,25.74
2017-08-26T01:09:59.162Z,25.71
2017-08-26T01:10:39.617Z,25.78
2017-08-26T01:11:20.084Z,25.77
2017-08-26T01:12:00.540Z,25.8
2017-08-26T01:12:40.995Z,25.74
2017-08-26T01:13:21.449Z,25.7
2017-08-26T01:14:01.905Z,25.73
2017-08-26T01:14:42.359Z,25.76
2017-08-26T01:15:22.821Z,25.78
2017-08-26T01:16:03.278Z,25.74
2017-08-26T01:16:43.734Z,25.76
2017-08-26T01:17:24.204Z,25.74
2017-08-26T01:18:04.663Z,25.74
2017-08-26T01:18:45.108Z,25.73
2017-08-26T01:19:25.556Z,25.74
2017-08-26T01:20:06.019Z,25.74
2017-08-26T01:20:46.481Z,25.76
2017-08-26T01:21:26.937Z,25.76
2017-08-26T01:22:07.393Z,25.71
2017-08-26T01:22:47.845Z,25.78
2017-08-26T01:23:28.300Z,25.73
2017-08-26T01:24:08.753Z,25.71
2017-08-26T01:24:49.209Z,25.71
2017-08-26T01:25:29.670Z,25.73
2017-08-26T01:26:10.121Z,25.7
2017-08-26T01:26:50.581Z,25.68
2017-08-26T01:27:31.047Z,25.71
2017-08-26T01:28:11.501Z,25.67
2017-08-26T01:28:51.950Z,25.73
2017-08-26T01:29:32.406Z,25.68
2017-08-26T01:30:12.862Z,25.73
2017-08-26T01:30:53.317Z,25.67
2017-08-26T01:31:33.774Z,25.76
2017-08-26T01:32:14.235Z,25.73
2017-08-26T01:32:54.702Z,25.7
2017-08-26T01:33:35.183Z,25.68
2017-08-26T01:34:15.622Z,25.73
2017-08-26T01:34:56.057Z,25.7
2017-08-26T01:35:36.515Z,25.7
2017-08-26T01:36:16.958Z,25.73
2017-08-26T01:36:57.412Z,25.67
2017-08-26T01:37:37.865Z,25.73
2017-08-26T01:38:18.320Z,25.68
2017-08-26T01:38:58.816Z,25.66
2017-08-26T01:39:39.276Z,25.66
2017-08-26T01:40:19.731Z,25.59
2017-08-26T01:41:00.184Z,25.66
2017-08-26T01:41:40.631Z,25.63
2017-08-26T01:42:21.087Z,25.55
2017-08-26T01:43:01.547Z,25.62
2017-08-26T01:43:41.998Z,25.71
2017-08-26T01:44:22.454Z,25.67
2017-08-26T01:45:02.913Z,25.62
2017-08-26T01:45:43.365Z,25.67
2017-08-26T01:46:23.822Z,25.58
2017-08-26T01:47:04.283Z,25.66
2017-08-26T01:47:44.740Z,25.63
2017-08-26T01:48:25.182Z,25.59
2017-08-26T01:49:05.642Z,25.59
2017-08-26T01:49:46.097Z,25.61
2017-08-26T01:50:26.559Z,25.63
2017-08-26T01:51:07.016Z,25.68
2017-08-26T01:51:47.471Z,25.61
2017-08-26T01:52:27.929Z,25.67
2017-08-26T01:53:08.385Z,25.67
2017-08-26T01:53:48.842Z,25.66
2017-08-26T01:54:29.300Z,25.63
2017-08-26T01:55:09.759Z,25.61
2017-08-26T01:55:50.211Z,25.67
2017-08-26T01:56:30.661Z,25.61
2017-08-26T01:57:11.116Z,25.67
2017-08-26T01:57:51.572Z,25.67
2017-08-26T01:58:32.029Z,25.7
2017-08-26T01:59:12.484Z,25.7
2017-08-26T01:59:52.940Z,25.63
2017-08-26T02:00:33.395Z,25.63
2017-08-26T02:01:13.856Z,25.67
2017-08-26T02:01:54.299Z,25.67
2017-08-26T02:02:34.751Z,25.67
2017-08-26T02:03:15.206Z,25.55
2017-08-26T02:03:55.654Z,25.62
2017-08-26T02:04:36.107Z,25.58
2017-08-26T02:05:16.548Z,25.55
2017-08-26T02:05:57.026Z,25.63
2017-08-26T02:07:34.491Z,25.54
2017-08-26T02:08:14.948Z,25.63
2017-08-26T02:08:55.399Z,25.59
2017-08-26T02:09:35.852Z,25.63
2017-08-26T02:10:16.305Z,25.59
2017-08-26T02:10:56.778Z,25.58
2017-08-26T02:12:34.239Z,25.58
2017-08-26T02:13:14.683Z,25.56
2017-08-26T02:13:55.132Z,25.59
2017-08-26T02:14:35.598Z,25.62
2017-08-26T02:15:16.055Z,25.59
2017-08-26T02:15:56.517Z,25.59
2017-08-26T02:16:36.970Z,25.56
2017-08-26T02:17:17.425Z,25.56
2017-08-26T02:17:57.892Z,25.56
2017-08-26T02:18:38.341Z,25.59
2017-08-26T02:19:18.797Z,25.58
2017-08-26T02:19:59.251Z,25.56
2017-08-26T02:20:39.708Z,25.58
2017-08-26T02:21:20.173Z,25.54
2017-08-26T02:22:00.638Z,25.56
2017-08-26T02:22:41.091Z,25.58
2017-08-26T02:23:21.556Z,25.58
2017-08-26T02:24:01.988Z,25.54
2017-08-26T02:24:42.448Z,25.54
2017-08-26T02:25:22.908Z,25.46
2017-08-26T02:26:03.377Z,25.46
2017-08-26T02:26:43.813Z,25.59
2017-08-26T02:27:24.261Z,25.55
2017-08-26T02:28:04.716Z,25.55
2017-08-26T02:28:45.173Z,25.41
2017-08-26T02:29:25.630Z,25.55
2017-08-26T02:30:06.079Z,25.54
2017-08-26T02:30:46.540Z,25.46
2017-08-26T02:31:27.007Z,25.48
2017-08-26T02:32:07.458Z,25.55
2017-08-26T02:32:47.916Z,25.48
2017-08-26T02:33:28.374Z,25.4
2017-08-26T02:34:08.827Z,25.52
2017-08-26T02:34:49.288Z,25.43
2017-08-26T02:35:29.744Z,25.4
2017-08-26T02:36:10.201Z,25.51
2017-08-26T02:36:50.660Z,25.49
2017-08-26T02:37:31.119Z,25.52
2017-08-26T02:38:11.575Z,25.41
2017-08-26T02:38:52.035Z,25.51
2017-08-26T02:39:32.508Z,25.44
2017-08-26T02:40:12.964Z,25.52
2017-08-26T02:40:53.424Z,25.55
2017-08-26T02:41:33.888Z,25.54
2017-08-26T02:42:14.340Z,25.39
2017-08-26T02:42:54.801Z,25.46
2017-08-26T02:43:35.253Z,25.54
2017-08-26T02:44:15.704Z,25.49
2017-08-26T02:44:56.148Z,25.54
2017-08-26T02:45:36.595Z,25.52
2017-08-26T02:46:17.053Z,25.49
2017-08-26T02:46:57.499Z,25.52
2017-08-26T02:47:37.955Z,25.55
2017-08-26T02:48:18.417Z,25.49
2017-08-26T02:48:58.878Z,25.51
2017-08-26T02:49:39.336Z,25.48
2017-08-26T02:50:19.787Z,25.52
2017-08-26T02:51:00.237Z,25.52
2017-08-26T02:51:40.693Z,25.55
2017-08-26T02:52:21.149Z,25.49
2017-08-26T02:53:01.608Z,25.48
2017-08-26T02:53:42.061Z,25.52
2017-08-26T02:54:22.508Z,25.48
2017-08-26T02:55:02.975Z,25.52
2017-08-26T02:55:43.432Z,25.54
2017-08-26T02:56:23.887Z,25.46
2017-08-26T02:57:04.338Z,25.52
2017-08-26T02:57:44.807Z,25.49
2017-08-26T02:58:25.269Z,25.46
2017-08-26T02:59:05.721Z,25.48
2017-08-26T02:59:46.183Z,25.55
2017-08-26T03:00:26.636Z,25.54
2017-08-26T03:01:07.087Z,25.48
2017-08-26T03:01:47.540Z,25.48
2017-08-26T03:02:27.989Z,25.48
2017-08-26T03:03:08.453Z,25.4
2017-08-26T03:03:48.891Z,25.48
2017-08-26T03:04:29.346Z,25.48
2017-08-26T03:05:09.833Z,25.54
2017-08-26T03:05:50.286Z,25.46
2017-08-26T03:06:30.741Z,25.44
2017-08-26T03:07:11.200Z,25.46
2017-08-26T03:07:51.659Z,25.48
2017-08-26T03:08:32.134Z,25.48
2017-08-26T03:09:12.589Z,25.43
2017-08-26T03:09:53.045Z,25.46
2017-08-26T03:10:33.506Z,25.48
2017-08-26T03:11:13.946Z,25.43
2017-08-26T03:11:54.413Z,25.41
2017-08-26T03:12:34.868Z,25.54
2017-08-26T03:13:15.317Z,25.51
2017-08-26T03:13:55.773Z,25.49
2017-08-26T03:14:36.249Z,25.48
2017-08-26T03:15:16.690Z,25.49
2017-08-26T03:15:57.179Z,25.48
2017-08-26T03:16:37.638Z,25.44
2017-08-26T03:17:18.098Z,25.49
2017-08-26T03:17:58.553Z,25.51
2017-08-26T03:18:39.013Z,25.43
2017-08-26T03:19:19.461Z,25.49
2017-08-26T03:19:59.909Z,25.52
2017-08-26T03:20:40.370Z,25.55
2017-08-26T03:21:20.823Z,25.46
2017-08-26T03:22:01.278Z,25.48
2017-08-26T03:22:41.726Z,25.55
2017-08-26T03:23:22.204Z,25.49
2017-08-26T03:24:02.647Z,25.46
2017-08-26T03:24:43.077Z,25.49
2017-08-26T03:25:23.540Z,25.49
2017-08-26T03:26:03.998Z,25.52
2017-08-26T03:26:44.452Z,25.43
2017-08-26T03:27:24.903Z,25.44
2017-08-26T03:28:05.356Z,25.46
2017-08-26T03:28:45.800Z,25.48
2017-08-26T03:29:26.257Z,25.44
2017-08-26T03:30:06.693Z,25.48
2017-08-26T03:30:47.159Z,25.4
2017-08-26T03:31:27.612Z,25.51
2017-08-26T03:32:08.069Z,25.46
2017-08-26T03:32:48.533Z,25.48
2017-08-26T03:33:28.982Z,25.36
2017-08-26T03:34:09.443Z,25.48
2017-08-26T03:34:49.892Z,25.52
2017-08-26T03:35:30.350Z,25.46
2017-08-26T03:36:10.826Z,25.48
2017-08-26T03:36:51.282Z,25.54
2017-08-26T03:37:31.756Z,25.48
2017-08-26T03:38:12.209Z,25.44
2017-08-26T03:38:52.658Z,25.54
2017-08-26T03:39:33.116Z,25.49
2017-08-26T03:40:13.572Z,25.49
2017-08-26T03:40:54.033Z,25.37
2017-08-26T03:41:34.485Z,25.43
2017-08-26T03:42:14.965Z,25.36
2017-08-26T03:42:55.394Z,25.34
2017-08-26T03:43:35.836Z,25.43
2017-08-26T03:44:16.299Z,25.48
2017-08-26T03:44:56.757Z,25.4
2017-08-26T03:45:37.212Z,25.41
2017-08-26T03:46:17.653Z,25.39
2017-08-26T03:46:58.114Z,25.37
2017-08-26T03:47:38.567Z,25.43
2017-08-26T03:48:19.023Z,25.36
2017-08-26T03:48:59.482Z,25.37
2017-08-26T03:49:39.948Z,25.4
2017-08-26T03:50:20.402Z,25.41
2017-08-26T03:51:00.865Z,25.41
2017-08-26T03:51:41.321Z,25.46
2017-08-26T03:52:21.785Z,25.33
2017-08-26T03:53:02.242Z,25.39
2017-08-26T03:53:42.694Z,25.36
2017-08-26T03:54:23.147Z,25.41
2017-08-26T03:55:03.602Z,25.49
2017-08-26T03:55:44.051Z,25.4
2017-08-26T03:56:24.503Z,25.36
2017-08-26T03:57:04.959Z,25.36
2017-08-26T03:57:45.404Z,25.37
2017-08-26T03:58:25.863Z,25.41
2017-08-26T03:59:06.326Z,25.37
2017-08-26T03:59:46.784Z,25.36
2017-08-26T04:00:27.244Z,25.34
2017-08-26T04:01:07.713Z,25.39
2017-08-26T04:01:48.150Z,25.41
2017-08-26T04:02:28.598Z,25.41
2017-08-26T04:03:09.060Z,25.48
2017-08-26T04:03:49.504Z,25.49
2017-08-26T04:04:29.956Z,25.44
2017-08-26T04:05:10.400Z,25.34
2017-08-26T04:05:50.848Z,25.37
2017-08-26T04:06:31.305Z,25.41
2017-08-26T04:07:11.755Z,25.37
2017-08-26T04:07:52.203Z,25.34
2017-08-26T04:08:32.664Z,25.41
2017-08-26T04:09:13.118Z,25.34
2017-08-26T04:09:53.567Z,25.33
2017-08-26T04:10:34.019Z,25.41
2017-08-26T04:11:14.481Z,25.36
2017-08-26T04:11:54.944Z,25.39
2017-08-26T04:12:35.401Z,25.33
2017-08-26T04:13:15.860Z,25.36
2017-08-26T04:13:56.314Z,25.34
2017-08-26T04:14:36.765Z,25.41
2017-08-26T04:15:17.263Z,25.4
2017-08-26T04:15:57.688Z,25.48
2017-08-26T04:16:38.131Z,25.39
2017-08-26T04:17:18.584Z,25.4
2017-08-26T04:17:59.038Z,25.41
2017-08-26T04:18:39.470Z,25.4
2017-08-26T04:19:19.924Z,25.39
2017-08-26T04:20:00.380Z,25.37
2017-08-26T04:20:40.817Z,25.51
2017-08-26T04:21:21.262Z,25.39
2017-08-26T04:22:01.713Z,25.4
2017-08-26T04:22:42.163Z,25.39
2017-08-26T04:23:22.612Z,25.39
2017-08-26T04:24:03.070Z,25.43
2017-08-26T04:24:43.521Z,25.34
2017-08-26T04:25:23.975Z,25.36
2017-08-26T04:26:04.416Z,25.36
2017-08-26T04:26:44.872Z,25.43
2017-08-26T04:27:25.324Z,25.37
2017-08-26T04:28:05.776Z,25.4
2017-08-26T04:28:46.233Z,25.39
2017-08-26T04:29:26.691Z,25.46
2017-08-26T04:30:07.153Z,25.36
2017-08-26T04:30:47.618Z,25.36
2017-08-26T04:31:28.071Z,25.36
2017-08-26T04:32:08.529Z,25.4
2017-08-26T04:32:49.007Z,25.39
2017-08-26T04:33:29.440Z,25.36
2017-08-26T04:34:09.889Z,25.36
2017-08-26T04:34:50.342Z,25.33
2017-08-26T04:35:30.788Z,25.46
2017-08-26T04:36:11.253Z,25.33
2017-08-26T04:36:51.716Z,25.4
2017-08-26T04:37:32.177Z,25.39
2017-08-26T04:38:12.633Z,25.39
2017-08-26T04:38:53.089Z,25.33
2017-08-26T04:39:33.544Z,25.33
2017-08-26T04:40:13.997Z,25.4
2017-08-26T04:40:54.459Z,25.34
2017-08-26T04:41:34.916Z,25.39
2017-08-26T04:42:15.372Z,25.33
2017-08-26T04:42:55.826Z,25.39
2017-08-26T04:43:36.276Z,25.37
2017-08-26T04:44:16.734Z,25.37
2017-08-26T04:44:57.251Z,25.36
2017-08-26T04:45:37.623Z,25.37
2017-08-26T04:46:18.076Z,25.41
2017-08-26T04:46:58.517Z,25.37
2017-08-26T04:47:38.967Z,25.37
2017-08-26T04:48:19.417Z,25.37
2017-08-26T04:48:59.881Z,25.31
2017-08-26T04:49:40.341Z,25.41
2017-08-26T04:50:20.787Z,25.39
2017-08-26T04:51:01.244Z,25.4
2017-08-26T04:51:41.726Z,25.36
2017-08-26T04:52:22.179Z,25.37
2017-08-26T04:53:02.631Z,25.44
2017-08-26T04:53:43.086Z,25.36
2017-08-26T04:54:23.538Z,25.39
2017-08-26T04:55:03.995Z,25.41
2017-08-26T04:55:44.447Z,25.37
2017-08-26T04:56:24.903Z,25.34
2017-08-26T04:57:05.357Z,25.34
2017-08-26T04:57:45.812Z,25.36
2017-08-26T04:58:26.262Z,25.41
2017-08-26T04:59:06.733Z,25.4
2017-08-26T04:59:47.177Z,25.36
2017-08-26T05:00:27.633Z,25.34
2017-08-26T05:01:08.093Z,25.4
2017-08-26T05:01:48.549Z,25.36
2017-08-26T05:02:29.004Z,25.36
2017-08-26T05:03:09.468Z,25.41
2017-08-26T05:03:49.920Z,25.4
2017-08-26T05:04:30.380Z,25.36
2017-08-26T05:05:10.832Z,25.44
2017-08-26T05:05:51.289Z,25.36
2017-08-26T05:06:31.743Z,25.37
2017-08-26T05:07:12.258Z,25.39
2017-08-26T05:07:52.709Z,25.34
2017-08-26T05:08:33.165Z,25.43
2017-08-26T05:09:13.622Z,25.41
2017-08-26T05:09:54.081Z,25.34
2017-08-26T05:10:34.536Z,25.39
2017-08-26T05:11:14.995Z,25.33
2017-08-26T05:11:55.442Z,25.33
2017-08-26T05:12:35.892Z,25.4
2017-08-26T05:13:16.344Z,25.44
2017-08-26T05:13:56.808Z,25.4
2017-08-26T05:14:37.267Z,25.36
2017-08-26T05:15:17.722Z,25.37
2017-08-26T05:15:58.191Z,25.41
2017-08-26T05:16:38.645Z,25.4
2017-08-26T05:17:19.103Z,25.37
2017-08-26T05:17:59.551Z,25.39
2017-08-26T05:18:40.012Z,25.33
2017-08-26T05:19:20.463Z,25.34
2017-08-26T05:20:00.921Z,25.33
2017-08-26T05:20:41.386Z,25.34
2017-08-26T05:21:21.836Z,25.4
2017-08-26T05:22:02.303Z,25.37
2017-08-26T05:22:42.766Z,25.4
2017-08-26T05:23:23.220Z,25.37
2017-08-26T05:24:03.677Z,25.4
2017-08-26T05:24:44.132Z,25.37
2017-08-26T05:25:24.594Z,25.36
2017-08-26T05:26:05.046Z,25.37
2017-08-26T05:26:45.497Z,25.36
2017-08-26T05:27:25.956Z,25.4
2017-08-26T05:28:06.429Z,25.44
2017-08-26T05:28:46.904Z,25.39
2017-08-26T05:29:27.353Z,25.34
2017-08-26T05:30:07.810Z,25.37
2017-08-26T05:30:48.262Z,25.34
2017-08-26T05:31:28.709Z,25.4
2017-08-26T05:32:09.176Z,25.37
2017-08-26T05:32:49.613Z,25.4
2017-08-26T05:33:30.080Z,25.43
2017-08-26T05:34:10.539Z,25.37
2017-08-26T05:34:50.988Z,25.41
2017-08-26T05:35:31.440Z,25.34
2017-08-26T05:36:11.890Z,25.37
2017-08-26T05:36:52.347Z,25.37
2017-08-26T05:37:32.826Z,25.37
2017-08-26T05:38:13.275Z,25.39
2017-08-26T05:38:53.739Z,25.37
2017-08-26T05:39:34.191Z,25.44
2017-08-26T05:40:14.646Z,25.37
2017-08-26T05:40:55.097Z,25.4
2017-08-26T05:41:35.560Z,25.4
2017-08-26T05:42:16.014Z,25.37
2017-08-26T05:42:56.485Z,25.34
2017-08-26T05:43:36.948Z,25.33
2017-08-26T05:44:17.437Z,25.44
2017-08-26T05:44:57.883Z,25.37
2017-08-26T05:45:38.337Z,25.4
2017-08-26T05:46:18.781Z,25.41
2017-08-26T05:46:59.231Z,25.39
2017-08-26T05:47:39.687Z,25.34
2017-08-26T05:48:20.137Z,25.37
2017-08-26T05:49:00.582Z,25.48
2017-08-26T05:49:41.046Z,25.37
2017-08-26T05:50:21.506Z,25.41
2017-08-26T05:51:01.967Z,25.34
2017-08-26T05:51:42.437Z,25.4
2017-08-26T05:52:22.895Z,25.4
2017-08-26T05:53:03.362Z,25.39
2017-08-26T05:53:43.811Z,25.43
2017-08-26T05:54:24.260Z,25.51
2017-08-26T05:55:04.712Z,25.41
2017-08-26T05:55:45.158Z,25.49
2017-08-26T05:56:25.607Z,25.37
2017-08-26T05:57:06.067Z,25.49
2017-08-26T05:57:46.510Z,25.37
2017-08-26T05:58:26.975Z,25.36
2017-08-26T05:59:07.423Z,25.48
2017-08-26T05:59:47.877Z,25.43
2017-08-26T06:00:28.603Z,25.41
2017-08-26T06:01:09.294Z,25.41
2017-08-26T06:01:49.733Z,25.51
2017-08-26T06:02:30.573Z,25.49
2017-08-26T06:03:11.021Z,25.52
2017-08-26T06:03:51.474Z,25.51
2017-08-26T06:04:31.930Z,25.41
2017-08-26T06:05:12.370Z,25.46
2017-08-26T06:05:52.814Z,25.49
2017-08-26T06:06:33.259Z,25.49
2017-08-26T06:07:13.702Z,25.46
2017-08-26T06:07:54.157Z,25.52
2017-08-26T06:08:34.612Z,25.52
2017-08-26T06:09:15.076Z,25.54
2017-08-26T06:09:55.534Z,25.48
2017-08-26T06:10:35.999Z,25.55
2017-08-26T06:11:16.459Z,25.54
2017-08-26T06:11:56.918Z,25.51
2017-08-26T06:12:37.382Z,25.48
2017-08-26T06:13:17.883Z,25.49
2017-08-26T06:13:58.305Z,25.52
2017-08-26T06:14:38.746Z,25.52
2017-08-26T06:15:19.189Z,25.54
2017-08-26T06:15:59.697Z,25.56
2017-08-26T06:16:40.150Z,25.58
2017-08-26T06:17:20.620Z,25.46
2017-08-26T06:18:01.078Z,25.43
2017-08-26T06:18:41.534Z,25.44
2017-08-26T06:19:21.998Z,25.46
2017-08-26T06:20:02.458Z,25.56
2017-08-26T06:20:42.916Z,25.59
2017-08-26T06:21:23.399Z,25.56
2017-08-26T06:22:03.878Z,25.58
2017-08-26T06:22:44.330Z,25.59
2017-08-26T06:23:24.766Z,25.54
2017-08-26T06:24:05.226Z,25.56
2017-08-26T06:24:45.674Z,25.55
2017-08-26T06:25:26.127Z,25.61
2017-08-26T06:26:06.585Z,25.63
2017-08-26T06:26:47.040Z,25.54
2017-08-26T06:27:27.496Z,25.56
2017-08-26T06:28:07.949Z,25.58
2017-08-26T06:28:48.407Z,25.54
2017-08-26T06:29:28.874Z,25.59
2017-08-26T06:30:09.342Z,25.63
2017-08-26T06:30:49.808Z,25.63
2017-08-26T06:31:30.266Z,25.56
2017-08-26T06:32:10.719Z,25.59
2017-08-26T06:32:51.173Z,25.61
2017-08-26T06:33:31.632Z,25.58
2017-08-26T06:34:12.096Z,25.61
2017-08-26T06:34:52.552Z,25.59
2017-08-26T06:35:33.000Z,25.7
2017-08-26T06:36:13.466Z,25.61
2017-08-26T06:36:53.921Z,25.62
2017-08-26T06:37:34.382Z,25.63
2017-08-26T06:38:14.847Z,25.59
2017-08-26T06:38:55.300Z,25.59
2017-08-26T06:39:35.733Z,25.62
2017-08-26T06:40:16.180Z,25.67
2017-08-26T06:40:56.643Z,25.67
2017-08-26T06:41:37.086Z,25.66
2017-08-26T06:42:17.630Z,25.68
2017-08-26T06:42:58.076Z,25.68
2017-08-26T06:43:38.537Z,25.68
2017-08-26T06:44:19.000Z,25.73
2017-08-26T06:44:59.449Z,25.76
2017-08-26T06:45:39.904Z,25.73
2017-08-26T06:46:20.362Z,25.74
2017-08-26T06:47:00.818Z,25.74
2017-08-26T06:47:41.265Z,25.71
2017-08-26T06:48:21.705Z,25.8
2017-08-26T06:49:02.154Z,25.81
2017-08-26T06:49:42.614Z,25.88
2017-08-26T06:50:23.071Z,25.85
2017-08-26T06:51:03.528Z,25.83
2017-08-26T06:51:43.984Z,25.85
2017-08-26T06:52:24.446Z,25.81
2017-08-26T06:53:04.904Z,25.86
2017-08-26T06:53:45.359Z,25.8
2017-08-26T06:54:25.822Z,25.93
2017-08-26T06:55:06.280Z,25.86
2017-08-26T06:55:46.735Z,25.89
2017-08-26T06:56:27.191Z,25.89
2017-08-26T06:57:07.648Z,25.86
2017-08-26T06:57:48.124Z,25.92
2017-08-26T06:58:28.589Z,25.95
2017-08-26T06:59:09.037Z,25.91
2017-08-26T06:59:49.495Z,25.92
2017-08-26T07:00:29.962Z,26.01
2017-08-26T07:01:10.396Z,25.93
2017-08-26T07:01:50.871Z,25.99
2017-08-26T07:02:31.311Z,25.91
2017-08-26T07:03:11.762Z,25.99
2017-08-26T07:03:52.216Z,25.98
2017-08-26T07:04:32.703Z,26.06
2017-08-26T07:05:13.166Z,25.96
2017-08-26T07:05:53.624Z,26.01
2017-08-26T07:06:34.094Z,25.92
2017-08-26T07:07:14.640Z,26.07
2017-08-26T07:07:55.083Z,25.98
2017-08-26T07:08:35.528Z,25.96
2017-08-26T07:09:15.984Z,26.1
2017-08-26T07:09:56.434Z,26.07
2017-08-26T07:10:36.857Z,26.04
2017-08-26T07:11:17.310Z,26.07
2017-08-26T07:11:57.748Z,26.19
2017-08-26T07:12:38.205Z,26.23
2017-08-26T07:13:18.666Z,26.29
2017-08-26T07:13:59.120Z,26.29
2017-08-26T07:14:39.584Z,26.3
2017-08-26T07:15:20.033Z,26.33
2017-08-26T07:16:00.511Z,26.33
2017-08-26T07:16:40.967Z,26.36
2017-08-26T07:17:21.429Z,26.33
2017-08-26T07:18:01.889Z,26.33
2017-08-26T07:18:42.350Z,26.41
2017-08-26T07:19:22.811Z,26.46
2017-08-26T07:20:03.256Z,26.44
2017-08-26T07:20:43.708Z,26.52
2017-08-26T07:21:24.159Z,26.53
2017-08-26T07:22:04.614Z,26.55
2017-08-26T07:22:45.066Z,26.55
2017-08-26T07:23:25.526Z,26.61
2017-08-26T07:24:05.985Z,26.6
2017-08-26T07:24:46.451Z,26.61
2017-08-26T07:25:26.924Z,26.67
2017-08-26T07:26:07.379Z,26.66
2017-08-26T07:26:47.838Z,26.66
2017-08-26T07:27:28.326Z,26.66
2017-08-26T07:28:08.751Z,26.64
2017-08-26T07:28:49.195Z,26.68
2017-08-26T07:29:29.635Z,26.76
2017-08-26T07:30:10.087Z,26.71
2017-08-26T07:30:50.520Z,26.82
2017-08-26T07:31:30.989Z,26.74
2017-08-26T07:32:11.445Z,26.79
2017-08-26T07:32:51.897Z,26.88
2017-08-26T07:33:32.359Z,26.79
2017-08-26T07:34:12.815Z,26.81
2017-08-26T07:34:53.248Z,26.81
2017-08-26T07:35:33.704Z,26.89
2017-08-26T07:36:14.139Z,26.88
2017-08-26T07:36:54.578Z,26.93
2017-08-26T07:37:35.028Z,26.88
2017-08-26T07:38:15.486Z,26.92
2017-08-26T07:38:55.945Z,26.91
2017-08-26T07:39:36.419Z,26.89
2017-08-26T07:40:16.882Z,26.83
2017-08-26T07:40:57.485Z,27
2017-08-26T07:41:37.900Z,26.98
2017-08-26T07:42:18.361Z,27
2017-08-26T07:42:58.798Z,26.98
2017-08-26T07:43:39.255Z,27
2017-08-26T07:44:19.700Z,27.03
2017-08-26T07:45:00.157Z,27.04
2017-08-26T07:45:40.595Z,27
2017-08-26T07:46:21.038Z,26.98
2017-08-26T07:47:01.477Z,27.05
2017-08-26T07:47:41.942Z,27.07
2017-08-26T07:48:22.401Z,27.15
2017-08-26T07:49:02.846Z,27.13
2017-08-26T07:49:43.306Z,27.18
2017-08-26T07:51:30.850Z,27.18
2017-08-26T07:52:11.323Z,27.11
2017-08-26T07:52:51.780Z,27.23
2017-08-26T07:53:32.234Z,27.16
2017-08-26T07:54:12.694Z,27.2
2017-08-26T07:54:53.148Z,27.19
2017-08-26T07:55:33.590Z,27.22
2017-08-26T07:56:14.055Z,27.18
2017-08-26T07:56:54.493Z,27.11
2017-08-26T07:57:34.940Z,27.15
2017-08-26T07:58:15.391Z,27.2
2017-08-26T07:58:55.839Z,27.2
2017-08-26T07:59:36.284Z,27.25
2017-08-26T08:00:16.753Z,27.28
2017-08-26T08:00:57.226Z,27.23
2017-08-26T08:01:37.647Z,27.23
2017-08-26T08:02:18.098Z,27.28
2017-08-26T08:02:58.539Z,27.38
2017-08-26T08:03:38.988Z,27.35
2017-08-26T08:04:19.424Z,27.3
2017-08-26T08:04:59.889Z,27.38
2017-08-26T08:05:40.321Z,27.38
2017-08-26T08:06:20.768Z,27.38
2017-08-26T08:07:01.209Z,27.35
2017-08-26T08:07:41.672Z,27.28
2017-08-26T08:08:22.128Z,27.28
2017-08-26T08:09:02.584Z,27.28
2017-08-26T08:09:43.909Z,27.3
2017-08-26T08:10:24.377Z,27.22
2017-08-26T08:11:04.825Z,27.2
2017-08-26T08:11:45.277Z,27.25
2017-08-26T08:12:25.725Z,27.2
2017-08-26T08:13:06.182Z,27.22
2017-08-26T08:13:46.625Z,27.26
2017-08-26T08:15:39.255Z,27.19
2017-08-26T08:16:19.727Z,27.19
2017-08-26T08:17:00.162Z,27.26
2017-08-26T08:17:40.598Z,27.23
2017-08-26T08:18:21.061Z,27.22
2017-08-26T08:19:01.532Z,27.15
2017-08-26T08:19:41.984Z,27.23
2017-08-26T08:20:22.470Z,27.26
2017-08-26T08:21:02.846Z,27.18
2017-08-26T08:21:43.301Z,27.26
2017-08-26T08:22:23.749Z,27.2
2017-08-26T08:23:04.201Z,27.22
2017-08-26T08:23:44.647Z,27.1
2017-08-26T08:24:25.094Z,27.11
2017-08-26T08:25:05.547Z,27.13
2017-08-26T08:25:46.032Z,27.19
2017-08-26T08:26:26.470Z,27.26
2017-08-26T08:27:06.883Z,27.2
2017-08-26T08:27:47.298Z,27.29
2017-08-26T08:28:27.724Z,27.18
2017-08-26T08:29:08.152Z,27.26
2017-08-26T08:30:45.595Z,27.37
2017-08-26T08:31:26.042Z,27.34
2017-08-26T08:32:06.502Z,27.3
2017-08-26T08:32:46.996Z,27.4
2017-08-26T08:33:27.425Z,27.37
2017-08-26T08:34:07.905Z,27.35
2017-08-26T08:34:48.389Z,27.33
2017-08-26T08:35:28.853Z,27.34
2017-08-26T08:36:09.383Z,27.35
2017-08-26T08:36:49.840Z,27.3
2017-08-26T08:37:30.248Z,27.38
2017-08-26T08:38:10.689Z,27.44
2017-08-26T08:38:51.084Z,27.41
2017-08-26T08:39:31.522Z,27.41
2017-08-26T08:40:11.920Z,27.38
2017-08-26T08:40:52.355Z,27.37
2017-08-26T08:41:32.849Z,27.43
2017-08-26T08:42:13.285Z,27.35
2017-08-26T08:42:53.712Z,27.38
2017-08-26T08:43:34.116Z,27.38
2017-08-26T08:44:14.533Z,27.38
2017-08-26T08:44:54.944Z,27.38
2017-08-26T08:45:35.358Z,27.47
2017-08-26T08:46:15.765Z,27.41
2017-08-26T08:46:56.191Z,27.45
2017-08-26T08:47:36.619Z,27.48
2017-08-26T08:48:17.012Z,27.44
2017-08-26T08:48:57.455Z,27.45